sensor_id;sensor_type;location;lat;lon;timestamp;temperature;humidity
11736;DHT22;5924;51.398;7.088;2024-03-07T00:00:08;2.10;99.90
11736;DHT22;5924;51.398;7.088;2024-03-07T00:02:45;2.10;99.90
11736;DHT22;5924;51.398;7.088;2024-03-07T00:05:11;2.10;99.90
11736;DHT22;5924;51.398;7.088;2024-03-07T00:07:41;2.10;99.90
11736;DHT22;5924;51.398;7.088;2024-03-07T00:10:07;2.10;99.90
11736;DHT22;5924;51.398;7.088;2024-03-07T00:12:37;2.10;99.90
11736;DHT22;5924;51.398;7.088;2024-03-07T00:15:05;2.10;99.90
11736;DHT22;5924;51.398;7.088;2024-03-07T00:17:31;2.10;99.90
11736;DHT22;5924;51.398;7.088;2024-03-07T00:19:57;2.30;99.90
11736;DHT22;5924;51.398;7.088;2024-03-07T00:22:23;2.10;99.90
11736;DHT22;5924;51.398;7.088;2024-03-07T00:24:52;2.10;99.90
11736;DHT22;5924;51.398;7.088;2024-03-07T00:27:18;2.00;99.90
11736;DHT22;5924;51.398;7.088;2024-03-07T00:29:45;2.00;99.90
11736;DHT22;5924;51.398;7.088;2024-03-07T00:32:21;2.00;99.90
11736;DHT22;5924;51.398;7.088;2024-03-07T00:34:48;2.00;99.90
11736;DHT22;5924;51.398;7.088;2024-03-07T00:37:14;2.00;99.90
11736;DHT22;5924;51.398;7.088;2024-03-07T00:39:40;2.10;99.90
11736;DHT22;5924;51.398;7.088;2024-03-07T00:42:06;2.10;99.90
11736;DHT22;5924;51.398;7.088;2024-03-07T00:44:32;2.20;99.90
11736;DHT22;5924;51.398;7.088;2024-03-07T00:46:57;2.30;99.90
11736;DHT22;5924;51.398;7.088;2024-03-07T00:49:23;2.40;99.90
11736;DHT22;5924;51.398;7.088;2024-03-07T00:51:50;2.40;99.90
11736;DHT22;5924;51.398;7.088;2024-03-07T00:54:15;2.50;99.90
11736;DHT22;5924;51.398;7.088;2024-03-07T00:56:41;2.60;99.90
11736;DHT22;5924;51.398;7.088;2024-03-07T00:59:07;2.80;99.90
11736;DHT22;5924;51.398;7.088;2024-03-07T01:01:33;2.70;99.90
11736;DHT22;5924;51.398;7.088;2024-03-07T01:04:01;2.70;99.90
11736;DHT22;5924;51.398;7.088;2024-03-07T01:06:28;2.80;99.90
11736;DHT22;5924;51.398;7.088;2024-03-07T01:08:54;2.80;99.90
11736;DHT22;5924;51.398;7.088;2024-03-07T01:11:19;2.80;99.90
11736;DHT22;5924;51.398;7.088;2024-03-07T01:13:45;2.90;99.90
11736;DHT22;5924;51.398;7.088;2024-03-07T01:16:11;2.90;99.90
11736;DHT22;5924;51.398;7.088;2024-03-07T01:18:37;2.90;99.90
11736;DHT22;5924;51.398;7.088;2024-03-07T01:21:04;3.00;99.90
11736;DHT22;5924;51.398;7.088;2024-03-07T01:23:31;2.90;99.90
11736;DHT22;5924;51.398;7.088;2024-03-07T01:25:58;2.90;99.90
11736;DHT22;5924;51.398;7.088;2024-03-07T01:28:24;3.00;99.90
11736;DHT22;5924;51.398;7.088;2024-03-07T01:30:51;3.00;99.90
11736;DHT22;5924;51.398;7.088;2024-03-07T01:33:21;3.00;99.90
11736;DHT22;5924;51.398;7.088;2024-03-07T01:35:47;3.00;99.90
11736;DHT22;5924;51.398;7.088;2024-03-07T01:38:13;3.30;99.90
11736;DHT22;5924;51.398;7.088;2024-03-07T01:40:40;3.20;99.90
11736;DHT22;5924;51.398;7.088;2024-03-07T01:43:07;3.20;99.90
11736;DHT22;5924;51.398;7.088;2024-03-07T01:45:32;3.30;99.90
11736;DHT22;5924;51.398;7.088;2024-03-07T01:47:58;3.30;99.90
11736;DHT22;5924;51.398;7.088;2024-03-07T01:50:24;3.40;99.90
11736;DHT22;5924;51.398;7.088;2024-03-07T01:52:50;3.40;99.90
11736;DHT22;5924;51.398;7.088;2024-03-07T01:55:17;3.40;99.90
11736;DHT22;5924;51.398;7.088;2024-03-07T01:57:43;3.40;99.90
11736;DHT22;5924;51.398;7.088;2024-03-07T02:00:11;3.40;99.90
11736;DHT22;5924;51.398;7.088;2024-03-07T02:02:37;3.40;99.90
11736;DHT22;5924;51.398;7.088;2024-03-07T02:05:03;3.50;99.90
11736;DHT22;5924;51.398;7.088;2024-03-07T02:07:30;3.50;99.90
11736;DHT22;5924;51.398;7.088;2024-03-07T02:10:00;3.50;99.90
11736;DHT22;5924;51.398;7.088;2024-03-07T02:12:26;5.60;99.90
11736;DHT22;5924;51.398;7.088;2024-03-07T02:14:52;3.50;99.90
11736;DHT22;5924;51.398;7.088;2024-03-07T02:17:18;3.50;99.90
11736;DHT22;5924;51.398;7.088;2024-03-07T02:19:45;3.50;99.90
11736;DHT22;5924;51.398;7.088;2024-03-07T02:22:12;3.50;99.90
11736;DHT22;5924;51.398;7.088;2024-03-07T02:24:38;3.60;99.90
11736;DHT22;5924;51.398;7.088;2024-03-07T02:27:04;3.50;99.90
11736;DHT22;5924;51.398;7.088;2024-03-07T02:29:30;3.60;99.90
11736;DHT22;5924;51.398;7.088;2024-03-07T02:31:56;3.60;99.90
11736;DHT22;5924;51.398;7.088;2024-03-07T02:34:22;3.60;99.90
11736;DHT22;5924;51.398;7.088;2024-03-07T02:36:48;3.70;99.90
11736;DHT22;5924;51.398;7.088;2024-03-07T02:39:13;3.70;99.90
11736;DHT22;5924;51.398;7.088;2024-03-07T02:41:40;3.80;99.90
11736;DHT22;5924;51.398;7.088;2024-03-07T02:44:06;3.80;99.90
11736;DHT22;5924;51.398;7.088;2024-03-07T02:46:31;3.90;99.90
11736;DHT22;5924;51.398;7.088;2024-03-07T02:48:58;3.90;99.90
11736;DHT22;5924;51.398;7.088;2024-03-07T02:51:24;3.90;99.90
11736;DHT22;5924;51.398;7.088;2024-03-07T02:53:50;3.90;99.90
11736;DHT22;5924;51.398;7.088;2024-03-07T02:56:15;4.00;99.90
11736;DHT22;5924;51.398;7.088;2024-03-07T02:58:42;3.90;99.90
11736;DHT22;5924;51.398;7.088;2024-03-07T03:01:07;3.90;99.90
11736;DHT22;5924;51.398;7.088;2024-03-07T03:03:33;3.90;99.90
11736;DHT22;5924;51.398;7.088;2024-03-07T03:05:59;4.10;99.90
11736;DHT22;5924;51.398;7.088;2024-03-07T03:08:25;3.90;99.90
11736;DHT22;5924;51.398;7.088;2024-03-07T03:10:51;3.80;99.90
11736;DHT22;5924;51.398;7.088;2024-03-07T03:13:17;3.80;99.90
11736;DHT22;5924;51.398;7.088;2024-03-07T03:15:43;3.80;99.90
11736;DHT22;5924;51.398;7.088;2024-03-07T03:18:08;3.70;99.90
11736;DHT22;5924;51.398;7.088;2024-03-07T03:20:38;3.80;99.90
11736;DHT22;5924;51.398;7.088;2024-03-07T03:23:04;3.70;99.90
11736;DHT22;5924;51.398;7.088;2024-03-07T03:25:31;3.70;99.90
11736;DHT22;5924;51.398;7.088;2024-03-07T03:28:01;3.70;99.90
11736;DHT22;5924;51.398;7.088;2024-03-07T03:30:27;3.60;99.90
11736;DHT22;5924;51.398;7.088;2024-03-07T03:32:52;3.60;99.90
11736;DHT22;5924;51.398;7.088;2024-03-07T03:35:18;3.60;99.90
11736;DHT22;5924;51.398;7.088;2024-03-07T03:37:45;3.60;99.90
11736;DHT22;5924;51.398;7.088;2024-03-07T03:40:11;3.50;99.90
11736;DHT22;5924;51.398;7.088;2024-03-07T03:42:41;3.50;99.90
11736;DHT22;5924;51.398;7.088;2024-03-07T03:45:08;3.50;99.90
11736;DHT22;5924;51.398;7.088;2024-03-07T03:47:37;3.50;99.90
11736;DHT22;5924;51.398;7.088;2024-03-07T03:50:07;3.50;99.90
11736;DHT22;5924;51.398;7.088;2024-03-07T03:52:33;3.40;99.90
11736;DHT22;5924;51.398;7.088;2024-03-07T03:55:06;3.40;99.90
11736;DHT22;5924;51.398;7.088;2024-03-07T03:57:36;3.40;99.90
11736;DHT22;5924;51.398;7.088;2024-03-07T04:00:05;3.40;99.90
11736;DHT22;5924;51.398;7.088;2024-03-07T04:02:37;3.40;99.90
11736;DHT22;5924;51.398;7.088;2024-03-07T04:05:03;3.30;99.90
11736;DHT22;5924;51.398;7.088;2024-03-07T04:07:29;3.30;99.90
11736;DHT22;5924;51.398;7.088;2024-03-07T04:09:56;3.30;99.90
11736;DHT22;5924;51.398;7.088;2024-03-07T04:12:23;3.30;99.90
11736;DHT22;5924;51.398;7.088;2024-03-07T04:14:49;3.30;99.90
11736;DHT22;5924;51.398;7.088;2024-03-07T04:17:14;3.30;99.90
11736;DHT22;5924;51.398;7.088;2024-03-07T04:19:41;3.30;99.90
11736;DHT22;5924;51.398;7.088;2024-03-07T04:22:07;3.30;99.90
11736;DHT22;5924;51.398;7.088;2024-03-07T04:24:36;3.20;99.90
11736;DHT22;5924;51.398;7.088;2024-03-07T04:27:02;4.60;99.90
11736;DHT22;5924;51.398;7.088;2024-03-07T04:29:32;3.10;99.90
11736;DHT22;5924;51.398;7.088;2024-03-07T04:31:58;3.20;99.90
11736;DHT22;5924;51.398;7.088;2024-03-07T04:34:24;3.10;99.90
11736;DHT22;5924;51.398;7.088;2024-03-07T04:36:49;3.10;99.90
11736;DHT22;5924;51.398;7.088;2024-03-07T04:39:15;3.10;99.90
11736;DHT22;5924;51.398;7.088;2024-03-07T04:42:02;3.10;99.90
11736;DHT22;5924;51.398;7.088;2024-03-07T04:44:32;3.00;99.90
11736;DHT22;5924;51.398;7.088;2024-03-07T04:46:59;2.90;99.90
11736;DHT22;5924;51.398;7.088;2024-03-07T04:49:27;2.90;99.90
11736;DHT22;5924;51.398;7.088;2024-03-07T04:51:54;2.90;99.90
11736;DHT22;5924;51.398;7.088;2024-03-07T04:54:21;3.00;99.90
11736;DHT22;5924;51.398;7.088;2024-03-07T04:56:47;2.90;99.90
11736;DHT22;5924;51.398;7.088;2024-03-07T04:59:13;2.90;99.90
11736;DHT22;5924;51.398;7.088;2024-03-07T05:01:40;2.90;99.90
11736;DHT22;5924;51.398;7.088;2024-03-07T05:04:06;2.90;99.90
11736;DHT22;5924;51.398;7.088;2024-03-07T05:06:33;4.00;99.90
11736;DHT22;5924;51.398;7.088;2024-03-07T05:09:02;2.90;99.90
11736;DHT22;5924;51.398;7.088;2024-03-07T05:11:29;2.90;99.90
11736;DHT22;5924;51.398;7.088;2024-03-07T05:13:55;2.90;99.90
11736;DHT22;5924;51.398;7.088;2024-03-07T05:16:21;2.90;99.90
11736;DHT22;5924;51.398;7.088;2024-03-07T05:18:46;2.90;99.90
11736;DHT22;5924;51.398;7.088;2024-03-07T05:21:12;2.90;99.90
11736;DHT22;5924;51.398;7.088;2024-03-07T05:24:11;2.90;99.90
11736;DHT22;5924;51.398;7.088;2024-03-07T05:26:36;2.90;99.90
11736;DHT22;5924;51.398;7.088;2024-03-07T05:29:07;2.90;99.90
11736;DHT22;5924;51.398;7.088;2024-03-07T05:31:37;2.90;99.90
11736;DHT22;5924;51.398;7.088;2024-03-07T05:34:04;2.90;99.90
11736;DHT22;5924;51.398;7.088;2024-03-07T05:36:36;2.90;99.90
11736;DHT22;5924;51.398;7.088;2024-03-07T05:39:09;2.80;99.90
11736;DHT22;5924;51.398;7.088;2024-03-07T05:41:37;2.80;99.90
11736;DHT22;5924;51.398;7.088;2024-03-07T05:44:03;2.80;99.90
11736;DHT22;5924;51.398;7.088;2024-03-07T05:46:29;2.80;99.90
11736;DHT22;5924;51.398;7.088;2024-03-07T05:48:55;2.80;99.90
11736;DHT22;5924;51.398;7.088;2024-03-07T05:51:25;2.70;99.90
11736;DHT22;5924;51.398;7.088;2024-03-07T05:53:51;2.70;99.90
11736;DHT22;5924;51.398;7.088;2024-03-07T05:56:17;2.60;99.90
11736;DHT22;5924;51.398;7.088;2024-03-07T05:58:43;2.50;99.90
11736;DHT22;5924;51.398;7.088;2024-03-07T06:01:09;2.50;99.90
11736;DHT22;5924;51.398;7.088;2024-03-07T06:03:35;2.50;99.90
11736;DHT22;5924;51.398;7.088;2024-03-07T06:06:01;2.40;99.90
11736;DHT22;5924;51.398;7.088;2024-03-07T06:08:26;2.40;99.90
11736;DHT22;5924;51.398;7.088;2024-03-07T06:10:52;2.40;99.90
11736;DHT22;5924;51.398;7.088;2024-03-07T06:13:18;2.40;99.90
11736;DHT22;5924;51.398;7.088;2024-03-07T06:15:44;2.40;99.90
11736;DHT22;5924;51.398;7.088;2024-03-07T06:18:10;2.40;99.90
11736;DHT22;5924;51.398;7.088;2024-03-07T06:20:36;2.40;99.90
11736;DHT22;5924;51.398;7.088;2024-03-07T06:23:03;2.40;99.90
11736;DHT22;5924;51.398;7.088;2024-03-07T06:25:31;2.40;99.90
11736;DHT22;5924;51.398;7.088;2024-03-07T06:28:06;2.40;99.90
11736;DHT22;5924;51.398;7.088;2024-03-07T06:30:45;2.50;99.90
11736;DHT22;5924;51.398;7.088;2024-03-07T06:33:11;2.40;99.90
11736;DHT22;5924;51.398;7.088;2024-03-07T06:35:37;2.30;99.90
11736;DHT22;5924;51.398;7.088;2024-03-07T06:38:07;2.30;99.90
11736;DHT22;5924;51.398;7.088;2024-03-07T06:40:34;2.30;99.90
11736;DHT22;5924;51.398;7.088;2024-03-07T06:43:00;2.30;99.90
11736;DHT22;5924;51.398;7.088;2024-03-07T06:45:26;2.30;99.90
11736;DHT22;5924;51.398;7.088;2024-03-07T06:47:52;2.30;99.90
11736;DHT22;5924;51.398;7.088;2024-03-07T06:50:20;2.40;99.90
11736;DHT22;5924;51.398;7.088;2024-03-07T06:52:47;2.40;99.90
11736;DHT22;5924;51.398;7.088;2024-03-07T06:55:16;2.40;99.90
11736;DHT22;5924;51.398;7.088;2024-03-07T06:57:43;2.40;99.90
11736;DHT22;5924;51.398;7.088;2024-03-07T07:00:10;2.40;99.90
11736;DHT22;5924;51.398;7.088;2024-03-07T07:02:40;2.40;99.90
11736;DHT22;5924;51.398;7.088;2024-03-07T07:05:07;2.40;99.90
11736;DHT22;5924;51.398;7.088;2024-03-07T07:07:39;2.50;99.90
11736;DHT22;5924;51.398;7.088;2024-03-07T07:10:08;2.50;99.90
11736;DHT22;5924;51.398;7.088;2024-03-07T07:12:37;2.50;99.90
11736;DHT22;5924;51.398;7.088;2024-03-07T07:15:02;2.50;99.90
11736;DHT22;5924;51.398;7.088;2024-03-07T07:17:29;2.50;99.90
11736;DHT22;5924;51.398;7.088;2024-03-07T07:19:56;2.40;99.90
11736;DHT22;5924;51.398;7.088;2024-03-07T07:22:22;2.30;99.90
11736;DHT22;5924;51.398;7.088;2024-03-07T07:24:48;2.30;99.90
11736;DHT22;5924;51.398;7.088;2024-03-07T07:27:13;2.20;99.90
11736;DHT22;5924;51.398;7.088;2024-03-07T07:29:39;2.30;99.90
11736;DHT22;5924;51.398;7.088;2024-03-07T07:32:05;2.20;99.90
11736;DHT22;5924;51.398;7.088;2024-03-07T07:34:31;2.20;99.90
11736;DHT22;5924;51.398;7.088;2024-03-07T07:36:57;2.20;99.90
11736;DHT22;5924;51.398;7.088;2024-03-07T07:39:23;2.20;99.90
11736;DHT22;5924;51.398;7.088;2024-03-07T07:41:49;2.20;99.90
11736;DHT22;5924;51.398;7.088;2024-03-07T07:44:15;2.30;99.90
11736;DHT22;5924;51.398;7.088;2024-03-07T07:46:41;2.30;99.90
11736;DHT22;5924;51.398;7.088;2024-03-07T07:49:07;2.30;99.90
11736;DHT22;5924;51.398;7.088;2024-03-07T07:51:32;2.30;99.90
11736;DHT22;5924;51.398;7.088;2024-03-07T07:53:58;2.50;99.90
11736;DHT22;5924;51.398;7.088;2024-03-07T07:56:25;2.50;99.90
11736;DHT22;5924;51.398;7.088;2024-03-07T07:58:53;2.50;99.90
11736;DHT22;5924;51.398;7.088;2024-03-07T08:01:19;2.60;99.90
11736;DHT22;5924;51.398;7.088;2024-03-07T08:03:45;2.70;99.90
11736;DHT22;5924;51.398;7.088;2024-03-07T08:06:11;2.80;99.90
11736;DHT22;5924;51.398;7.088;2024-03-07T08:08:36;2.80;99.90
11736;DHT22;5924;51.398;7.088;2024-03-07T08:11:02;2.90;99.90
11736;DHT22;5924;51.398;7.088;2024-03-07T08:13:28;3.00;99.90
11736;DHT22;5924;51.398;7.088;2024-03-07T08:15:54;3.00;99.90
11736;DHT22;5924;51.398;7.088;2024-03-07T08:18:20;3.10;99.90
11736;DHT22;5924;51.398;7.088;2024-03-07T08:20:46;3.20;99.90
11736;DHT22;5924;51.398;7.088;2024-03-07T08:23:12;3.20;99.90
11736;DHT22;5924;51.398;7.088;2024-03-07T08:25:41;3.30;99.90
11736;DHT22;5924;51.398;7.088;2024-03-07T08:28:07;3.40;99.90
11736;DHT22;5924;51.398;7.088;2024-03-07T08:30:34;3.50;99.90
11736;DHT22;5924;51.398;7.088;2024-03-07T08:33:00;3.60;99.90
11736;DHT22;5924;51.398;7.088;2024-03-07T08:35:30;3.60;99.90
11736;DHT22;5924;51.398;7.088;2024-03-07T08:37:56;3.70;99.90
11736;DHT22;5924;51.398;7.088;2024-03-07T08:40:30;3.80;99.90
11736;DHT22;5924;51.398;7.088;2024-03-07T08:43:00;3.90;99.90
11736;DHT22;5924;51.398;7.088;2024-03-07T08:45:26;4.10;99.90
11736;DHT22;5924;51.398;7.088;2024-03-07T08:47:53;4.10;99.90
11736;DHT22;5924;51.398;7.088;2024-03-07T08:50:23;4.20;99.90
11736;DHT22;5924;51.398;7.088;2024-03-07T08:52:49;4.40;99.90
11736;DHT22;5924;51.398;7.088;2024-03-07T08:55:16;4.60;99.90
11736;DHT22;5924;51.398;7.088;2024-03-07T08:57:43;4.80;99.90
11736;DHT22;5924;51.398;7.088;2024-03-07T09:00:12;5.00;99.90
11736;DHT22;5924;51.398;7.088;2024-03-07T09:02:48;5.20;99.90
11736;DHT22;5924;51.398;7.088;2024-03-07T09:05:21;5.50;99.90
11736;DHT22;5924;51.398;7.088;2024-03-07T09:07:48;5.70;99.90
11736;DHT22;5924;51.398;7.088;2024-03-07T09:10:14;5.80;99.90
11736;DHT22;5924;51.398;7.088;2024-03-07T09:12:40;5.80;99.90
11736;DHT22;5924;51.398;7.088;2024-03-07T09:15:06;5.80;99.90
11736;DHT22;5924;51.398;7.088;2024-03-07T09:17:32;6.00;99.90
11736;DHT22;5924;51.398;7.088;2024-03-07T09:19:58;6.10;99.90
11736;DHT22;5924;51.398;7.088;2024-03-07T09:22:24;6.10;99.90
11736;DHT22;5924;51.398;7.088;2024-03-07T09:24:50;6.20;99.90
11736;DHT22;5924;51.398;7.088;2024-03-07T09:27:17;6.30;99.90
11736;DHT22;5924;51.398;7.088;2024-03-07T09:29:45;6.40;99.90
11736;DHT22;5924;51.398;7.088;2024-03-07T09:32:13;6.40;99.90
11736;DHT22;5924;51.398;7.088;2024-03-07T09:34:38;6.50;99.90
11736;DHT22;5924;51.398;7.088;2024-03-07T09:37:04;6.50;99.90
11736;DHT22;5924;51.398;7.088;2024-03-07T09:39:32;6.60;99.90
11736;DHT22;5924;51.398;7.088;2024-03-07T09:42:01;6.70;99.90
11736;DHT22;5924;51.398;7.088;2024-03-07T09:44:28;6.80;99.90
11736;DHT22;5924;51.398;7.088;2024-03-07T09:46:55;6.80;99.90
11736;DHT22;5924;51.398;7.088;2024-03-07T09:49:24;6.90;99.90
11736;DHT22;5924;51.398;7.088;2024-03-07T09:51:51;7.00;99.90
11736;DHT22;5924;51.398;7.088;2024-03-07T09:54:25;7.10;99.90
11736;DHT22;5924;51.398;7.088;2024-03-07T09:56:53;7.10;99.90
11736;DHT22;5924;51.398;7.088;2024-03-07T09:59:19;7.10;99.90
11736;DHT22;5924;51.398;7.088;2024-03-07T10:01:50;7.10;99.90
11736;DHT22;5924;51.398;7.088;2024-03-07T10:04:35;7.20;99.90
11736;DHT22;5924;51.398;7.088;2024-03-07T10:07:03;7.20;99.90
11736;DHT22;5924;51.398;7.088;2024-03-07T10:09:29;7.20;99.90
11736;DHT22;5924;51.398;7.088;2024-03-07T10:11:58;7.20;99.90
11736;DHT22;5924;51.398;7.088;2024-03-07T10:14:24;7.30;99.90
11736;DHT22;5924;51.398;7.088;2024-03-07T10:16:50;7.40;99.90
11736;DHT22;5924;51.398;7.088;2024-03-07T10:19:16;7.50;99.90
11736;DHT22;5924;51.398;7.088;2024-03-07T10:21:41;7.60;99.90
11736;DHT22;5924;51.398;7.088;2024-03-07T10:24:08;7.60;99.90
11736;DHT22;5924;51.398;7.088;2024-03-07T10:26:37;7.70;99.90
11736;DHT22;5924;51.398;7.088;2024-03-07T10:29:07;7.90;99.90
11736;DHT22;5924;51.398;7.088;2024-03-07T10:31:35;8.00;99.90
11736;DHT22;5924;51.398;7.088;2024-03-07T10:34:05;8.20;99.90
11736;DHT22;5924;51.398;7.088;2024-03-07T10:36:31;8.20;99.90
11736;DHT22;5924;51.398;7.088;2024-03-07T10:38:58;8.20;99.90
11736;DHT22;5924;51.398;7.088;2024-03-07T10:41:45;8.30;99.90
11736;DHT22;5924;51.398;7.088;2024-03-07T10:44:24;8.40;99.90
11736;DHT22;5924;51.398;7.088;2024-03-07T10:46:58;8.40;99.90
11736;DHT22;5924;51.398;7.088;2024-03-07T10:49:26;8.60;99.90
11736;DHT22;5924;51.398;7.088;2024-03-07T10:52:08;8.80;99.90
11736;DHT22;5924;51.398;7.088;2024-03-07T10:54:43;8.90;99.90
11736;DHT22;5924;51.398;7.088;2024-03-07T11:00:03;8.60;99.90
11736;DHT22;5924;51.398;7.088;2024-03-07T11:02:50;8.50;99.90
11736;DHT22;5924;51.398;7.088;2024-03-07T11:05:19;8.60;99.90
11736;DHT22;5924;51.398;7.088;2024-03-07T11:07:45;8.60;99.90
11736;DHT22;5924;51.398;7.088;2024-03-07T11:10:13;8.50;99.90
11736;DHT22;5924;51.398;7.088;2024-03-07T11:12:44;8.60;99.90
11736;DHT22;5924;51.398;7.088;2024-03-07T11:15:12;8.70;99.90
11736;DHT22;5924;51.398;7.088;2024-03-07T11:17:44;8.70;99.90
11736;DHT22;5924;51.398;7.088;2024-03-07T11:20:25;8.70;99.90
11736;DHT22;5924;51.398;7.088;2024-03-07T11:22:51;8.80;99.90
11736;DHT22;5924;51.398;7.088;2024-03-07T11:25:21;8.80;99.90
11736;DHT22;5924;51.398;7.088;2024-03-07T11:27:57;8.90;99.90
11736;DHT22;5924;51.398;7.088;2024-03-07T11:30:24;8.90;99.90
11736;DHT22;5924;51.398;7.088;2024-03-07T11:32:52;8.80;99.90
11736;DHT22;5924;51.398;7.088;2024-03-07T11:35:33;8.70;99.90
11736;DHT22;5924;51.398;7.088;2024-03-07T11:38:01;8.70;99.90
11736;DHT22;5924;51.398;7.088;2024-03-07T11:42:56;8.80;99.90
11736;DHT22;5924;51.398;7.088;2024-03-07T11:45:31;9.00;99.90
11736;DHT22;5924;51.398;7.088;2024-03-07T11:48:17;9.20;99.90
11736;DHT22;5924;51.398;7.088;2024-03-07T11:50:45;9.30;99.90
11736;DHT22;5924;51.398;7.088;2024-03-07T11:53:11;9.40;99.90
11736;DHT22;5924;51.398;7.088;2024-03-07T11:55:38;9.50;99.90
11736;DHT22;5924;51.398;7.088;2024-03-07T11:58:20;9.60;99.90
11736;DHT22;5924;51.398;7.088;2024-03-07T12:00:50;9.80;99.90
11736;DHT22;5924;51.398;7.088;2024-03-07T12:03:18;9.00;99.90
11736;DHT22;5924;51.398;7.088;2024-03-07T12:05:47;10.00;99.90
11736;DHT22;5924;51.398;7.088;2024-03-07T12:08:13;10.10;99.90
11736;DHT22;5924;51.398;7.088;2024-03-07T12:10:39;9.40;99.90
11736;DHT22;5924;51.398;7.088;2024-03-07T12:13:09;9.90;99.90
11736;DHT22;5924;51.398;7.088;2024-03-07T12:15:37;11.40;99.90
11736;DHT22;5924;51.398;7.088;2024-03-07T12:18:04;9.90;99.90
11736;DHT22;5924;51.398;7.088;2024-03-07T12:20:37;9.60;99.90
11736;DHT22;5924;51.398;7.088;2024-03-07T12:23:05;9.60;99.90
11736;DHT22;5924;51.398;7.088;2024-03-07T12:25:37;9.60;99.90
11736;DHT22;5924;51.398;7.088;2024-03-07T12:28:06;9.30;99.90
11736;DHT22;5924;51.398;7.088;2024-03-07T12:30:58;9.60;99.90
11736;DHT22;5924;51.398;7.088;2024-03-07T12:33:24;9.50;99.90
11736;DHT22;5924;51.398;7.088;2024-03-07T12:35:53;11.50;99.90
11736;DHT22;5924;51.398;7.088;2024-03-07T12:38:25;7.30;99.90
11736;DHT22;5924;51.398;7.088;2024-03-07T12:41:08;8.00;99.90
11736;DHT22;5924;51.398;7.088;2024-03-07T12:43:40;10.30;99.90
11736;DHT22;5924;51.398;7.088;2024-03-07T12:46:10;10.80;99.90
11736;DHT22;5924;51.398;7.088;2024-03-07T12:48:37;11.10;99.90
11736;DHT22;5924;51.398;7.088;2024-03-07T12:51:04;10.90;99.90
11736;DHT22;5924;51.398;7.088;2024-03-07T12:53:30;10.60;99.90
11736;DHT22;5924;51.398;7.088;2024-03-07T12:55:57;10.50;99.90
11736;DHT22;5924;51.398;7.088;2024-03-07T12:58:22;10.30;99.90
11736;DHT22;5924;51.398;7.088;2024-03-07T13:00:51;10.10;99.90
11736;DHT22;5924;51.398;7.088;2024-03-07T13:03:17;9.90;99.90
11736;DHT22;5924;51.398;7.088;2024-03-07T13:05:43;9.70;99.90
11736;DHT22;5924;51.398;7.088;2024-03-07T13:08:10;9.60;99.90
11736;DHT22;5924;51.398;7.088;2024-03-07T13:10:44;9.60;99.90
11736;DHT22;5924;51.398;7.088;2024-03-07T13:13:10;9.50;99.90
11736;DHT22;5924;51.398;7.088;2024-03-07T13:15:40;9.50;99.90
11736;DHT22;5924;51.398;7.088;2024-03-07T13:18:08;10.20;99.90
11736;DHT22;5924;51.398;7.088;2024-03-07T13:20:35;9.30;99.90
11736;DHT22;5924;51.398;7.088;2024-03-07T13:23:00;9.30;99.90
11736;DHT22;5924;51.398;7.088;2024-03-07T13:25:27;9.20;99.90
11736;DHT22;5924;51.398;7.088;2024-03-07T13:28:04;9.20;99.90
11736;DHT22;5924;51.398;7.088;2024-03-07T13:30:34;9.20;99.90
11736;DHT22;5924;51.398;7.088;2024-03-07T13:33:02;9.30;99.90
11736;DHT22;5924;51.398;7.088;2024-03-07T13:35:29;9.50;99.90
11736;DHT22;5924;51.398;7.088;2024-03-07T13:37:55;9.60;99.90
11736;DHT22;5924;51.398;7.088;2024-03-07T13:40:23;9.80;99.90
11736;DHT22;5924;51.398;7.088;2024-03-07T13:45:20;9.60;99.90
11736;DHT22;5924;51.398;7.088;2024-03-07T13:47:47;9.50;99.90
11736;DHT22;5924;51.398;7.088;2024-03-07T13:50:15;9.50;99.90
11736;DHT22;5924;51.398;7.088;2024-03-07T13:52:41;9.40;99.90
11736;DHT22;5924;51.398;7.088;2024-03-07T13:55:20;9.40;99.90
11736;DHT22;5924;51.398;7.088;2024-03-07T13:57:51;8.10;99.90
11736;DHT22;5924;51.398;7.088;2024-03-07T14:00:50;9.40;99.90
11736;DHT22;5924;51.398;7.088;2024-03-07T14:06:38;9.60;99.90
11736;DHT22;5924;51.398;7.088;2024-03-07T14:17:59;9.90;99.90
11736;DHT22;5924;51.398;7.088;2024-03-07T14:23:54;9.60;99.90
11736;DHT22;5924;51.398;7.088;2024-03-07T14:32:04;9.20;99.90
11736;DHT22;5924;51.398;7.088;2024-03-07T14:37:29;9.10;99.90
11736;DHT22;5924;51.398;7.088;2024-03-07T14:40:09;9.10;99.90
11736;DHT22;5924;51.398;7.088;2024-03-07T14:42:41;9.10;99.90
11736;DHT22;5924;51.398;7.088;2024-03-07T14:45:07;9.10;99.90
11736;DHT22;5924;51.398;7.088;2024-03-07T14:47:38;9.20;99.90
11736;DHT22;5924;51.398;7.088;2024-03-07T14:50:04;9.20;99.90
11736;DHT22;5924;51.398;7.088;2024-03-07T14:52:30;9.20;99.90
11736;DHT22;5924;51.398;7.088;2024-03-07T14:54:57;9.30;99.90
11736;DHT22;5924;51.398;7.088;2024-03-07T14:57:22;9.30;99.90
11736;DHT22;5924;51.398;7.088;2024-03-07T14:59:48;9.30;99.90
11736;DHT22;5924;51.398;7.088;2024-03-07T15:02:16;9.30;99.90
11736;DHT22;5924;51.398;7.088;2024-03-07T15:04:42;9.30;99.90
11736;DHT22;5924;51.398;7.088;2024-03-07T15:07:09;9.20;99.90
11736;DHT22;5924;51.398;7.088;2024-03-07T15:09:35;9.30;99.90
11736;DHT22;5924;51.398;7.088;2024-03-07T15:12:02;9.30;99.90
11736;DHT22;5924;51.398;7.088;2024-03-07T15:14:27;9.40;99.90
11736;DHT22;5924;51.398;7.088;2024-03-07T15:16:53;9.60;99.90
11736;DHT22;5924;51.398;7.088;2024-03-07T15:19:19;9.40;99.90
11736;DHT22;5924;51.398;7.088;2024-03-07T15:21:45;9.40;99.90
11736;DHT22;5924;51.398;7.088;2024-03-07T15:24:13;9.30;99.90
11736;DHT22;5924;51.398;7.088;2024-03-07T15:26:39;9.20;99.90
11736;DHT22;5924;51.398;7.088;2024-03-07T15:29:04;9.20;99.90
11736;DHT22;5924;51.398;7.088;2024-03-07T15:31:30;9.20;99.90
11736;DHT22;5924;51.398;7.088;2024-03-07T15:33:56;9.10;99.90
11736;DHT22;5924;51.398;7.088;2024-03-07T15:36:22;9.10;99.90
11736;DHT22;5924;51.398;7.088;2024-03-07T15:38:48;9.00;99.90
11736;DHT22;5924;51.398;7.088;2024-03-07T15:41:14;9.00;99.90
11736;DHT22;5924;51.398;7.088;2024-03-07T15:43:43;8.90;99.90
11736;DHT22;5924;51.398;7.088;2024-03-07T15:46:10;8.90;99.90
11736;DHT22;5924;51.398;7.088;2024-03-07T15:48:37;8.80;99.90
11736;DHT22;5924;51.398;7.088;2024-03-07T15:51:03;8.70;99.90
11736;DHT22;5924;51.398;7.088;2024-03-07T15:53:31;8.60;99.90
11736;DHT22;5924;51.398;7.088;2024-03-07T15:55:59;8.50;99.90
11736;DHT22;5924;51.398;7.088;2024-03-07T15:58:25;8.40;99.90
11736;DHT22;5924;51.398;7.088;2024-03-07T16:00:51;8.40;99.90
11736;DHT22;5924;51.398;7.088;2024-03-07T16:03:17;8.40;99.90
11736;DHT22;5924;51.398;7.088;2024-03-07T16:05:44;7.50;99.90
11736;DHT22;5924;51.398;7.088;2024-03-07T16:08:11;8.30;99.90
11736;DHT22;5924;51.398;7.088;2024-03-07T16:10:38;8.30;99.90
11736;DHT22;5924;51.398;7.088;2024-03-07T16:13:09;8.20;99.90
11736;DHT22;5924;51.398;7.088;2024-03-07T16:15:36;8.20;99.90
11736;DHT22;5924;51.398;7.088;2024-03-07T16:18:02;8.70;99.90
11736;DHT22;5924;51.398;7.088;2024-03-07T16:20:29;8.10;99.90
11736;DHT22;5924;51.398;7.088;2024-03-07T16:22:55;8.10;99.90
11736;DHT22;5924;51.398;7.088;2024-03-07T16:25:22;8.10;99.90
11736;DHT22;5924;51.398;7.088;2024-03-07T16:27:50;8.10;99.90
11736;DHT22;5924;51.398;7.088;2024-03-07T16:30:17;8.10;99.90
11736;DHT22;5924;51.398;7.088;2024-03-07T16:32:45;8.10;99.90
11736;DHT22;5924;51.398;7.088;2024-03-07T16:35:16;8.10;99.90
11736;DHT22;5924;51.398;7.088;2024-03-07T16:37:46;8.10;99.90